sensor_id;sensor_type;location;lat;lon;timestamp;pressure;altitude;pressure_sealevel;temperature;humidity
17521;BME280;8878;-33.370;-70.552;2023-12-29T00:01:17;92397.41;;;16.84;100.00
17521;BME280;8878;-33.370;-70.552;2023-12-29T00:03:47;92391.50;;;16.73;100.00
17521;BME280;8878;-33.370;-70.552;2023-12-29T00:06:17;92393.63;;;16.58;100.00
17521;BME280;8878;-33.370;-70.552;2023-12-29T00:08:48;92409.22;;;16.51;100.00
17521;BME280;8878;-33.370;-70.552;2023-12-29T00:11:18;92415.44;;;16.32;100.00
17521;BME280;8878;-33.370;-70.552;2023-12-29T00:13:48;92416.66;;;16.21;100.00
17521;BME280;8878;-33.370;-70.552;2023-12-29T00:16:17;92428.22;;;16.30;100.00
17521;BME280;8878;-33.370;-70.552;2023-12-29T00:18:46;92435.91;;;16.18;100.00
17521;BME280;8878;-33.370;-70.552;2023-12-29T00:21:16;92435.56;;;16.06;100.00
17521;BME280;8878;-33.370;-70.552;2023-12-29T00:23:47;92426.97;;;15.95;100.00
17521;BME280;8878;-33.370;-70.552;2023-12-29T00:26:17;92429.66;;;16.09;100.00
17521;BME280;8878;-33.370;-70.552;2023-12-29T00:28:46;92425.25;;;16.18;100.00
17521;BME280;8878;-33.370;-70.552;2023-12-29T00:31:16;92415.50;;;16.27;100.00
17521;BME280;8878;-33.370;-70.552;2023-12-29T00:33:46;92413.22;;;16.34;100.00
17521;BME280;8878;-33.370;-70.552;2023-12-29T00:36:18;92411.78;;;16.42;100.00
17521;BME280;8878;-33.370;-70.552;2023-12-29T00:38:49;92432.59;;;16.40;100.00
17521;BME280;8878;-33.370;-70.552;2023-12-29T00:41:19;92445.59;;;16.41;100.00
17521;BME280;8878;-33.370;-70.552;2023-12-29T00:43:48;92443.78;;;16.23;100.00
17521;BME280;8878;-33.370;-70.552;2023-12-29T00:46:17;92454.53;;;16.18;100.00
17521;BME280;8878;-33.370;-70.552;2023-12-29T00:48:47;92446.03;;;16.16;100.00
17521;BME280;8878;-33.370;-70.552;2023-12-29T00:51:16;92434.03;;;16.19;100.00
17521;BME280;8878;-33.370;-70.552;2023-12-29T00:53:45;92424.19;;;16.19;100.00
17521;BME280;8878;-33.370;-70.552;2023-12-29T00:56:16;92410.88;;;16.19;100.00
17521;BME280;8878;-33.370;-70.552;2023-12-29T00:58:46;92388.28;;;16.17;100.00
17521;BME280;8878;-33.370;-70.552;2023-12-29T01:01:15;92422.22;;;16.25;100.00
17521;BME280;8878;-33.370;-70.552;2023-12-29T01:03:44;92435.25;;;16.26;100.00
17521;BME280;8878;-33.370;-70.552;2023-12-29T01:06:13;92431.34;;;16.05;100.00
17521;BME280;8878;-33.370;-70.552;2023-12-29T01:08:43;92416.88;;;16.11;100.00
17521;BME280;8878;-33.370;-70.552;2023-12-29T01:11:12;92426.25;;;16.22;100.00
17521;BME280;8878;-33.370;-70.552;2023-12-29T01:13:43;92431.44;;;16.14;100.00
17521;BME280;8878;-33.370;-70.552;2023-12-29T01:16:12;92436.97;;;16.17;100.00
17521;BME280;8878;-33.370;-70.552;2023-12-29T01:18:41;92437.56;;;16.14;100.00
17521;BME280;8878;-33.370;-70.552;2023-12-29T01:21:11;92418.75;;;15.92;100.00
17521;BME280;8878;-33.370;-70.552;2023-12-29T01:23:40;92415.44;;;16.00;100.00
17521;BME280;8878;-33.370;-70.552;2023-12-29T01:26:09;92424.34;;;16.09;100.00
17521;BME280;8878;-33.370;-70.552;2023-12-29T01:28:39;92437.16;;;16.07;100.00
17521;BME280;8878;-33.370;-70.552;2023-12-29T01:31:10;92427.94;;;15.99;100.00
17521;BME280;8878;-33.370;-70.552;2023-12-29T01:33:40;92419.03;;;16.09;100.00
17521;BME280;8878;-33.370;-70.552;2023-12-29T01:36:09;92417.41;;;15.94;100.00
17521;BME280;8878;-33.370;-70.552;2023-12-29T01:38:45;92419.03;;;15.77;100.00
17521;BME280;8878;-33.370;-70.552;2023-12-29T01:41:14;92431.19;;;15.64;100.00
17521;BME280;8878;-33.370;-70.552;2023-12-29T01:46:55;92417.25;;;15.53;100.00
17521;BME280;8878;-33.370;-70.552;2023-12-29T01:49:25;92414.94;;;15.65;100.00
17521;BME280;8878;-33.370;-70.552;2023-12-29T01:51:57;92420.69;;;15.73;100.00
17521;BME280;8878;-33.370;-70.552;2023-12-29T01:54:29;92418.03;;;15.73;100.00
17521;BME280;8878;-33.370;-70.552;2023-12-29T01:57:01;92407.66;;;15.71;100.00
17521;BME280;8878;-33.370;-70.552;2023-12-29T01:59:31;92421.34;;;15.64;100.00
17521;BME280;8878;-33.370;-70.552;2023-12-29T02:02:03;92413.16;;;15.61;100.00
17521;BME280;8878;-33.370;-70.552;2023-12-29T02:04:32;92403.00;;;15.44;100.00
17521;BME280;8878;-33.370;-70.552;2023-12-29T02:07:03;92394.31;;;15.39;100.00
17521;BME280;8878;-33.370;-70.552;2023-12-29T02:09:33;92395.91;;;15.40;100.00
17521;BME280;8878;-33.370;-70.552;2023-12-29T02:12:03;92418.31;;;15.52;100.00
17521;BME280;8878;-33.370;-70.552;2023-12-29T02:14:33;92407.25;;;15.45;100.00
17521;BME280;8878;-33.370;-70.552;2023-12-29T02:17:13;92395.31;;;15.43;100.00
17521;BME280;8878;-33.370;-70.552;2023-12-29T02:19:46;92391.66;;;15.39;100.00
17521;BME280;8878;-33.370;-70.552;2023-12-29T02:22:16;92401.03;;;15.50;100.00
17521;BME280;8878;-33.370;-70.552;2023-12-29T02:24:48;92402.44;;;15.47;100.00
17521;BME280;8878;-33.370;-70.552;2023-12-29T02:27:23;92405.16;;;15.42;100.00
17521;BME280;8878;-33.370;-70.552;2023-12-29T02:30:05;92389.44;;;15.27;100.00
17521;BME280;8878;-33.370;-70.552;2023-12-29T02:32:39;92389.38;;;15.32;100.00
17521;BME280;8878;-33.370;-70.552;2023-12-29T02:35:11;92373.00;;;15.25;100.00
17521;BME280;8878;-33.370;-70.552;2023-12-29T02:37:41;92374.56;;;15.26;100.00
17521;BME280;8878;-33.370;-70.552;2023-12-29T02:40:13;92385.13;;;15.31;100.00
17521;BME280;8878;-33.370;-70.552;2023-12-29T02:42:46;92385.13;;;15.31;100.00
17521;BME280;8878;-33.370;-70.552;2023-12-29T02:45:15;92372.19;;;15.24;100.00
17521;BME280;8878;-33.370;-70.552;2023-12-29T02:47:46;92383.69;;;15.20;100.00
17521;BME280;8878;-33.370;-70.552;2023-12-29T02:50:16;92389.44;;;15.08;100.00
17521;BME280;8878;-33.370;-70.552;2023-12-29T02:52:46;92398.91;;;15.14;100.00
17521;BME280;8878;-33.370;-70.552;2023-12-29T02:55:17;92397.00;;;15.20;100.00
17521;BME280;8878;-33.370;-70.552;2023-12-29T02:57:46;92376.63;;;15.29;100.00
17521;BME280;8878;-33.370;-70.552;2023-12-29T03:00:15;92375.06;;;15.28;100.00
17521;BME280;8878;-33.370;-70.552;2023-12-29T03:02:46;92375.78;;;15.15;100.00
17521;BME280;8878;-33.370;-70.552;2023-12-29T03:05:16;92362.13;;;15.21;100.00
17521;BME280;8878;-33.370;-70.552;2023-12-29T03:07:45;92351.44;;;15.08;100.00
17521;BME280;8878;-33.370;-70.552;2023-12-29T03:10:17;92347.06;;;14.98;100.00
17521;BME280;8878;-33.370;-70.552;2023-12-29T03:12:47;92350.34;;;15.09;100.00
17521;BME280;8878;-33.370;-70.552;2023-12-29T03:15:16;92351.38;;;15.13;100.00
17521;BME280;8878;-33.370;-70.552;2023-12-29T03:17:46;92367.59;;;15.11;100.00
17521;BME280;8878;-33.370;-70.552;2023-12-29T03:20:15;92392.78;;;15.14;100.00
17521;BME280;8878;-33.370;-70.552;2023-12-29T03:22:44;92381.38;;;15.13;100.00
17521;BME280;8878;-33.370;-70.552;2023-12-29T03:25:15;92362.28;;;15.11;100.00
17521;BME280;8878;-33.370;-70.552;2023-12-29T03:27:45;92365.75;;;15.12;100.00
17521;BME280;8878;-33.370;-70.552;2023-12-29T03:30:15;92368.41;;;15.12;100.00
17521;BME280;8878;-33.370;-70.552;2023-12-29T03:32:44;92371.09;;;15.07;100.00
17521;BME280;8878;-33.370;-70.552;2023-12-29T03:35:14;92371.81;;;14.94;100.00
17521;BME280;8878;-33.370;-70.552;2023-12-29T03:37:43;92366.66;;;15.02;100.00
17521;BME280;8878;-33.370;-70.552;2023-12-29T03:40:13;92361.50;;;15.11;100.00
17521;BME280;8878;-33.370;-70.552;2023-12-29T03:42:44;92360.72;;;15.10;100.00
17521;BME280;8878;-33.370;-70.552;2023-12-29T03:45:13;92364.72;;;15.08;100.00
17521;BME280;8878;-33.370;-70.552;2023-12-29T03:47:42;92376.38;;;15.12;100.00
17521;BME280;8878;-33.370;-70.552;2023-12-29T03:50:12;92378.28;;;15.06;100.00
17521;BME280;8878;-33.370;-70.552;2023-12-29T03:52:41;92360.47;;;15.07;100.00
17521;BME280;8878;-33.370;-70.552;2023-12-29T03:55:10;92351.59;;;14.98;100.00
17521;BME280;8878;-33.370;-70.552;2023-12-29T03:57:39;92354.53;;;14.96;100.00
17521;BME280;8878;-33.370;-70.552;2023-12-29T04:00:12;92341.25;;;14.77;100.00
17521;BME280;8878;-33.370;-70.552;2023-12-29T04:02:42;92351.28;;;14.62;100.00
17521;BME280;8878;-33.370;-70.552;2023-12-29T04:05:11;92348.97;;;14.55;100.00
17521;BME280;8878;-33.370;-70.552;2023-12-29T04:07:40;92353.13;;;14.61;100.00
17521;BME280;8878;-33.370;-70.552;2023-12-29T04:10:10;92340.41;;;14.58;100.00
17521;BME280;8878;-33.370;-70.552;2023-12-29T04:12:39;92348.97;;;14.55;100.00
17521;BME280;8878;-33.370;-70.552;2023-12-29T04:15:11;92363.59;;;14.53;100.00
17521;BME280;8878;-33.370;-70.552;2023-12-29T04:17:40;92358.34;;;14.47;100.00
17521;BME280;8878;-33.370;-70.552;2023-12-29T04:20:10;92339.59;;;14.39;100.00
17521;BME280;8878;-33.370;-70.552;2023-12-29T04:22:39;92319.94;;;14.40;100.00
17521;BME280;8878;-33.370;-70.552;2023-12-29T04:25:09;92307.63;;;14.49;100.00
17521;BME280;8878;-33.370;-70.552;2023-12-29T04:27:39;92301.31;;;14.45;100.00
17521;BME280;8878;-33.370;-70.552;2023-12-29T04:30:10;92294.63;;;14.47;100.00
17521;BME280;8878;-33.370;-70.552;2023-12-29T04:32:40;92300.44;;;14.49;100.00
17521;BME280;8878;-33.370;-70.552;2023-12-29T04:35:09;92297.13;;;14.39;100.00
17521;BME280;8878;-33.370;-70.552;2023-12-29T04:37:39;92313.00;;;14.44;100.00
17521;BME280;8878;-33.370;-70.552;2023-12-29T04:40:09;92317.56;;;14.38;100.00
17521;BME280;8878;-33.370;-70.552;2023-12-29T04:42:39;92318.44;;;14.29;100.00
17521;BME280;8878;-33.370;-70.552;2023-12-29T04:45:10;92299.22;;;14.42;100.00
17521;BME280;8878;-33.370;-70.552;2023-12-29T04:47:39;92295.34;;;14.53;100.00
17521;BME280;8878;-33.370;-70.552;2023-12-29T04:50:10;92307.19;;;14.42;100.00
17521;BME280;8878;-33.370;-70.552;2023-12-29T04:52:39;92301.66;;;14.38;100.00
17521;BME280;8878;-33.370;-70.552;2023-12-29T04:55:09;92305.94;;;14.34;100.00
17521;BME280;8878;-33.370;-70.552;2023-12-29T04:57:39;92307.97;;;14.42;100.00
17521;BME280;8878;-33.370;-70.552;2023-12-29T05:00:11;92289.53;;;14.51;100.00
17521;BME280;8878;-33.370;-70.552;2023-12-29T05:02:41;92284.75;;;14.53;100.00
17521;BME280;8878;-33.370;-70.552;2023-12-29T05:05:10;92289.06;;;14.49;100.00
17521;BME280;8878;-33.370;-70.552;2023-12-29T05:07:39;92289.88;;;14.44;100.00
17521;BME280;8878;-33.370;-70.552;2023-12-29T05:10:09;92288.53;;;14.47;100.00
17521;BME280;8878;-33.370;-70.552;2023-12-29T05:12:38;92283.66;;;14.54;100.00
17521;BME280;8878;-33.370;-70.552;2023-12-29T05:15:08;92275.78;;;14.49;100.00
17521;BME280;8878;-33.370;-70.552;2023-12-29T05:17:39;92259.84;;;14.49;100.00
17521;BME280;8878;-33.370;-70.552;2023-12-29T05:20:09;92252.53;;;14.36;100.00
17521;BME280;8878;-33.370;-70.552;2023-12-29T05:22:39;92260.84;;;14.29;100.00
17521;BME280;8878;-33.370;-70.552;2023-12-29T05:25:09;92265.28;;;14.39;100.00
17521;BME280;8878;-33.370;-70.552;2023-12-29T05:27:38;92265.47;;;14.42;100.00
17521;BME280;8878;-33.370;-70.552;2023-12-29T05:30:08;92261.19;;;14.46;100.00
17521;BME280;8878;-33.370;-70.552;2023-12-29T05:32:39;92259.06;;;14.48;100.00
17521;BME280;8878;-33.370;-70.552;2023-12-29T05:35:08;92257.13;;;14.54;100.00
17521;BME280;8878;-33.370;-70.552;2023-12-29T05:37:38;92251.81;;;14.54;100.00
17521;BME280;8878;-33.370;-70.552;2023-12-29T05:40:08;92259.44;;;14.37;100.00
17521;BME280;8878;-33.370;-70.552;2023-12-29T05:42:37;92249.34;;;14.39;100.00
17521;BME280;8878;-33.370;-70.552;2023-12-29T05:45:07;92242.47;;;14.38;100.00
17521;BME280;8878;-33.370;-70.552;2023-12-29T05:47:39;92245.38;;;14.36;100.00
17521;BME280;8878;-33.370;-70.552;2023-12-29T05:50:08;92237.72;;;14.35;100.00
17521;BME280;8878;-33.370;-70.552;2023-12-29T05:52:38;92228.16;;;14.34;100.00
17521;BME280;8878;-33.370;-70.552;2023-12-29T05:55:08;92230.81;;;14.34;100.00
17521;BME280;8878;-33.370;-70.552;2023-12-29T05:57:37;92234.63;;;14.28;100.00
17521;BME280;8878;-33.370;-70.552;2023-12-29T06:00:07;92237.28;;;14.28;100.00
17521;BME280;8878;-33.370;-70.552;2023-12-29T06:02:44;92227.84;;;14.17;100.00
17521;BME280;8878;-33.370;-70.552;2023-12-29T06:05:13;92229.38;;;14.23;100.00
17521;BME280;8878;-33.370;-70.552;2023-12-29T06:07:42;92230.38;;;14.27;100.00
17521;BME280;8878;-33.370;-70.552;2023-12-29T06:10:12;92232.53;;;14.25;100.00
17521;BME280;8878;-33.370;-70.552;2023-12-29T06:12:41;92224.66;;;14.20;100.00
17521;BME280;8878;-33.370;-70.552;2023-12-29T06:15:13;92223.06;;;14.19;100.00
17521;BME280;8878;-33.370;-70.552;2023-12-29T06:17:45;92217.75;;;14.19;100.00
17521;BME280;8878;-33.370;-70.552;2023-12-29T06:20:14;92211.94;;;14.17;100.00
17521;BME280;8878;-33.370;-70.552;2023-12-29T06:22:44;92217.25;;;14.17;100.00
17521;BME280;8878;-33.370;-70.552;2023-12-29T06:25:13;92213.59;;;14.13;100.00
17521;BME280;8878;-33.370;-70.552;2023-12-29T06:27:43;92214.50;;;14.03;100.00
17521;BME280;8878;-33.370;-70.552;2023-12-29T06:30:13;92210.78;;;14.04;100.00
17521;BME280;8878;-33.370;-70.552;2023-12-29T06:32:44;92206.78;;;14.06;100.00
17521;BME280;8878;-33.370;-70.552;2023-12-29T06:35:13;92217.09;;;14.08;100.00
17521;BME280;8878;-33.370;-70.552;2023-12-29T06:37:43;92212.09;;;14.06;100.00
17521;BME280;8878;-33.370;-70.552;2023-12-29T06:40:13;92212.38;;;14.05;100.00
17521;BME280;8878;-33.370;-70.552;2023-12-29T06:42:43;92222.38;;;14.08;100.00
17521;BME280;8878;-33.370;-70.552;2023-12-29T06:45:12;92212.13;;;14.01;100.00
17521;BME280;8878;-33.370;-70.552;2023-12-29T06:47:41;92208.47;;;13.97;100.00
17521;BME280;8878;-33.370;-70.552;2023-12-29T06:50:12;92203.19;;;13.97;100.00
17521;BME280;8878;-33.370;-70.552;2023-12-29T06:52:42;92206.63;;;13.98;100.00
17521;BME280;8878;-33.370;-70.552;2023-12-29T06:55:11;92209.66;;;13.86;100.00
17521;BME280;8878;-33.370;-70.552;2023-12-29T06:57:40;92209.78;;;13.76;100.00
17521;BME280;8878;-33.370;-70.552;2023-12-29T07:00:10;92204.69;;;13.80;100.00
17521;BME280;8878;-33.370;-70.552;2023-12-29T07:02:40;92212.38;;;13.81;100.00
17521;BME280;8878;-33.370;-70.552;2023-12-29T07:05:11;92215.03;;;13.81;100.00
17521;BME280;8878;-33.370;-70.552;2023-12-29T07:07:40;92211.06;;;13.79;100.00
17521;BME280;8878;-33.370;-70.552;2023-12-29T07:10:12;92209.22;;;13.79;100.00
17521;BME280;8878;-33.370;-70.552;2023-12-29T07:12:42;92207.16;;;13.76;100.00
17521;BME280;8878;-33.370;-70.552;2023-12-29T07:15:11;92202.91;;;13.75;100.00
17521;BME280;8878;-33.370;-70.552;2023-12-29T07:17:41;92207.44;;;13.75;100.00
17521;BME280;8878;-33.370;-70.552;2023-12-29T07:20:13;92211.94;;;13.74;100.00
17521;BME280;8878;-33.370;-70.552;2023-12-29T07:22:42;92223.13;;;13.71;100.00
17521;BME280;8878;-33.370;-70.552;2023-12-29T07:25:11;92220.47;;;13.71;100.00
17521;BME280;8878;-33.370;-70.552;2023-12-29T07:27:41;92216.78;;;13.67;100.00
17521;BME280;8878;-33.370;-70.552;2023-12-29T07:30:11;92218.91;;;13.65;100.00
17521;BME280;8878;-33.370;-70.552;2023-12-29T07:32:41;92221.09;;;13.63;100.00
17521;BME280;8878;-33.370;-70.552;2023-12-29T07:35:12;92213.41;;;13.61;100.00
17521;BME280;8878;-33.370;-70.552;2023-12-29T07:37:44;92208.66;;;13.58;100.00
17521;BME280;8878;-33.370;-70.552;2023-12-29T07:40:14;92218.72;;;13.61;100.00
17521;BME280;8878;-33.370;-70.552;2023-12-29T07:42:45;92218.44;;;13.63;100.00
17521;BME280;8878;-33.370;-70.552;2023-12-29T07:45:17;92211.53;;;13.62;100.00
17521;BME280;8878;-33.370;-70.552;2023-12-29T07:47:46;92213.16;;;13.58;100.00
17521;BME280;8878;-33.370;-70.552;2023-12-29T07:50:17;92218.00;;;13.51;100.00
17521;BME280;8878;-33.370;-70.552;2023-12-29T07:52:47;92216.22;;;13.46;100.00
17521;BME280;8878;-33.370;-70.552;2023-12-29T07:55:16;92203.31;;;13.40;100.00
17521;BME280;8878;-33.370;-70.552;2023-12-29T07:57:46;92207.28;;;13.37;100.00
17521;BME280;8878;-33.370;-70.552;2023-12-29T08:00:16;92221.06;;;13.39;100.00
17521;BME280;8878;-33.370;-70.552;2023-12-29T08:02:45;92218.94;;;13.41;100.00
17521;BME280;8878;-33.370;-70.552;2023-12-29T08:05:16;92223.66;;;13.44;100.00
17521;BME280;8878;-33.370;-70.552;2023-12-29T08:07:46;92211.38;;;13.53;100.00
17521;BME280;8878;-33.370;-70.552;2023-12-29T08:10:15;92214.88;;;13.49;100.00
17521;BME280;8878;-33.370;-70.552;2023-12-29T08:12:44;92213.50;;;13.51;100.00
17521;BME280;8878;-33.370;-70.552;2023-12-29T08:15:15;92212.69;;;13.56;100.00
17521;BME280;8878;-33.370;-70.552;2023-12-29T08:17:44;92214.81;;;13.54;100.00
17521;BME280;8878;-33.370;-70.552;2023-12-29T08:20:16;92217.69;;;13.57;100.00
17521;BME280;8878;-33.370;-70.552;2023-12-29T08:22:47;92217.91;;;13.61;100.00
17521;BME280;8878;-33.370;-70.552;2023-12-29T08:25:17;92232.69;;;13.67;100.00
17521;BME280;8878;-33.370;-70.552;2023-12-29T08:27:46;92231.91;;;13.66;100.00
17521;BME280;8878;-33.370;-70.552;2023-12-29T08:30:15;92238.25;;;13.70;100.00
17521;BME280;8878;-33.370;-70.552;2023-12-29T08:32:44;92242.34;;;13.82;100.00
17521;BME280;8878;-33.370;-70.552;2023-12-29T08:35:14;92235.63;;;13.89;100.00
17521;BME280;8878;-33.370;-70.552;2023-12-29T08:37:45;92238.03;;;13.86;100.00
17521;BME280;8878;-33.370;-70.552;2023-12-29T08:40:14;92237.59;;;13.79;100.00
17521;BME280;8878;-33.370;-70.552;2023-12-29T08:42:44;92238.09;;;13.81;100.00
17521;BME280;8878;-33.370;-70.552;2023-12-29T08:45:13;92237.03;;;13.82;100.00
17521;BME280;8878;-33.370;-70.552;2023-12-29T08:47:43;92217.69;;;13.81;100.00
17521;BME280;8878;-33.370;-70.552;2023-12-29T08:50:13;92226.94;;;13.84;100.00
17521;BME280;8878;-33.370;-70.552;2023-12-29T08:52:48;92223.06;;;13.76;100.00
17521;BME280;8878;-33.370;-70.552;2023-12-29T08:55:17;92223.59;;;13.73;100.00
17521;BME280;8878;-33.370;-70.552;2023-12-29T08:57:46;92234.72;;;13.75;100.00
17521;BME280;8878;-33.370;-70.552;2023-12-29T09:00:16;92244.47;;;13.80;100.00
17521;BME280;8878;-33.370;-70.552;2023-12-29T09:02:45;92251.63;;;13.79;100.00
17521;BME280;8878;-33.370;-70.552;2023-12-29T09:05:15;92250.09;;;13.78;100.00
17521;BME280;8878;-33.370;-70.552;2023-12-29T09:07:46;92264.69;;;13.76;100.00
17521;BME280;8878;-33.370;-70.552;2023-12-29T09:10:15;92267.06;;;13.77;100.00
17521;BME280;8878;-33.370;-70.552;2023-12-29T09:12:45;92266.63;;;13.65;100.00
17521;BME280;8878;-33.370;-70.552;2023-12-29T09:15:14;92281.00;;;13.64;100.00
17521;BME280;8878;-33.370;-70.552;2023-12-29T09:17:43;92274.56;;;13.70;100.00
17521;BME280;8878;-33.370;-70.552;2023-12-29T09:20:13;92275.56;;;13.74;100.00
17521;BME280;8878;-33.370;-70.552;2023-12-29T09:22:43;92275.50;;;13.79;100.00
17521;BME280;8878;-33.370;-70.552;2023-12-29T09:25:14;92276.19;;;13.66;100.00
17521;BME280;8878;-33.370;-70.552;2023-12-29T09:27:43;92287.97;;;13.55;100.00
17521;BME280;8878;-33.370;-70.552;2023-12-29T09:30:14;92287.84;;;13.65;100.00
17521;BME280;8878;-33.370;-70.552;2023-12-29T09:32:44;92292.09;;;13.66;100.00
17521;BME280;8878;-33.370;-70.552;2023-12-29T09:35:13;92290.50;;;13.65;100.00
17521;BME280;8878;-33.370;-70.552;2023-12-29T09:37:43;92295.81;;;13.65;100.00
17521;BME280;8878;-33.370;-70.552;2023-12-29T09:40:14;92298.97;;;13.67;100.00
17521;BME280;8878;-33.370;-70.552;2023-12-29T09:42:44;92297.91;;;13.68;100.00
17521;BME280;8878;-33.370;-70.552;2023-12-29T09:45:14;92303.28;;;13.58;100.00
17521;BME280;8878;-33.370;-70.552;2023-12-29T09:47:48;92306.19;;;13.61;100.00
17521;BME280;8878;-33.370;-70.552;2023-12-29T09:50:20;92307.19;;;13.65;100.00
17521;BME280;8878;-33.370;-70.552;2023-12-29T09:52:50;92309.63;;;13.62;100.00
17521;BME280;8878;-33.370;-70.552;2023-12-29T09:55:22;92314.31;;;13.70;100.00
17521;BME280;8878;-33.370;-70.552;2023-12-29T09:57:52;92314.81;;;13.72;100.00
17521;BME280;8878;-33.370;-70.552;2023-12-29T10:00:22;92311.09;;;13.73;100.00
17521;BME280;8878;-33.370;-70.552;2023-12-29T10:02:52;92316.69;;;13.71;100.00
17521;BME280;8878;-33.370;-70.552;2023-12-29T10:05:21;92304.72;;;13.74;100.00
17521;BME280;8878;-33.370;-70.552;2023-12-29T10:07:52;92301.06;;;13.70;100.00
17521;BME280;8878;-33.370;-70.552;2023-12-29T10:10:24;92310.56;;;13.76;100.00
17521;BME280;8878;-33.370;-70.552;2023-12-29T10:12:55;92306.25;;;13.80;100.00
17521;BME280;8878;-33.370;-70.552;2023-12-29T10:15:29;92308.34;;;13.83;100.00
17521;BME280;8878;-33.370;-70.552;2023-12-29T10:18:10;92305.88;;;13.92;100.00
17521;BME280;8878;-33.370;-70.552;2023-12-29T10:20:48;92304.47;;;13.99;100.00
17521;BME280;8878;-33.370;-70.552;2023-12-29T10:23:22;92307.06;;;14.04;100.00
17521;BME280;8878;-33.370;-70.552;2023-12-29T10:25:57;92316.00;;;14.14;100.00
17521;BME280;8878;-33.370;-70.552;2023-12-29T10:28:26;92311.19;;;14.16;100.00
17521;BME280;8878;-33.370;-70.552;2023-12-29T10:30:56;92306.38;;;14.18;100.00
17521;BME280;8878;-33.370;-70.552;2023-12-29T10:33:25;92305.66;;;14.12;100.00
17521;BME280;8878;-33.370;-70.552;2023-12-29T10:36:00;92296.91;;;14.11;100.00
17521;BME280;8878;-33.370;-70.552;2023-12-29T10:38:33;92299.66;;;14.25;100.00
17521;BME280;8878;-33.370;-70.552;2023-12-29T10:41:14;92303.03;;;14.31;100.00
17521;BME280;8878;-33.370;-70.552;2023-12-29T10:43:44;92306.69;;;14.40;100.00
17521;BME280;8878;-33.370;-70.552;2023-12-29T10:46:14;92309.50;;;14.48;100.00
17521;BME280;8878;-33.370;-70.552;2023-12-29T10:48:43;92306.78;;;14.54;100.00
17521;BME280;8878;-33.370;-70.552;2023-12-29T10:51:13;92315.44;;;14.59;100.00
17521;BME280;8878;-33.370;-70.552;2023-12-29T10:53:54;92310.56;;;14.66;100.00
17521;BME280;8878;-33.370;-70.552;2023-12-29T10:56:26;92300.97;;;14.70;100.00
17521;BME280;8878;-33.370;-70.552;2023-12-29T10:58:59;92312.09;;;14.72;100.00
17521;BME280;8878;-33.370;-70.552;2023-12-29T11:01:30;92297.09;;;14.81;100.00
17521;BME280;8878;-33.370;-70.552;2023-12-29T11:04:02;92302.31;;;14.86;100.00
17521;BME280;8878;-33.370;-70.552;2023-12-29T11:06:41;92303.03;;;14.92;100.00
17521;BME280;8878;-33.370;-70.552;2023-12-29T11:09:13;92306.00;;;14.91;100.00
17521;BME280;8878;-33.370;-70.552;2023-12-29T11:11:44;92315.03;;;14.89;100.00
17521;BME280;8878;-33.370;-70.552;2023-12-29T11:14:14;92321.19;;;14.85;100.00
17521;BME280;8878;-33.370;-70.552;2023-12-29T11:16:43;92314.69;;;14.77;100.00
17521;BME280;8878;-33.370;-70.552;2023-12-29T11:19:13;92312.31;;;14.76;100.00
17521;BME280;8878;-33.370;-70.552;2023-12-29T11:21:44;92321.13;;;14.71;100.00
17521;BME280;8878;-33.370;-70.552;2023-12-29T11:24:13;92322.28;;;14.65;100.00
17521;BME280;8878;-33.370;-70.552;2023-12-29T11:26:45;92313.91;;;14.77;100.00
17521;BME280;8878;-33.370;-70.552;2023-12-29T11:29:14;92318.53;;;14.66;100.00
17521;BME280;8878;-33.370;-70.552;2023-12-29T11:31:45;92322.50;;;14.69;100.00
17521;BME280;8878;-33.370;-70.552;2023-12-29T11:34:20;92324.28;;;14.73;100.00
17521;BME280;8878;-33.370;-70.552;2023-12-29T11:36:57;92325.31;;;14.77;100.00
17521;BME280;8878;-33.370;-70.552;2023-12-29T11:39:36;92321.28;;;14.99;100.00
17521;BME280;8878;-33.370;-70.552;2023-12-29T11:42:17;92334.69;;;15.07;100.00
17521;BME280;8878;-33.370;-70.552;2023-12-29T11:44:49;92326.44;;;15.09;100.00
17521;BME280;8878;-33.370;-70.552;2023-12-29T11:47:37;92332.41;;;15.01;100.00
17521;BME280;8878;-33.370;-70.552;2023-12-29T11:50:08;92341.75;;;15.17;100.00
17521;BME280;8878;-33.370;-70.552;2023-12-29T11:52:38;92342.03;;;15.34;100.00
17521;BME280;8878;-33.370;-70.552;2023-12-29T11:55:09;92340.50;;;15.47;100.00
17521;BME280;8878;-33.370;-70.552;2023-12-29T11:57:40;92327.56;;;15.59;100.00
17521;BME280;8878;-33.370;-70.552;2023-12-29T12:00:10;92324.22;;;15.67;100.00
17521;BME280;8878;-33.370;-70.552;2023-12-29T12:02:39;92331.25;;;15.77;100.00
17521;BME280;8878;-33.370;-70.552;2023-12-29T12:05:10;92336.47;;;15.82;100.00
17521;BME280;8878;-33.370;-70.552;2023-12-29T12:08:06;92339.44;;;15.94;100.00
17521;BME280;8878;-33.370;-70.552;2023-12-29T12:10:35;92348.50;;;15.93;100.00
17521;BME280;8878;-33.370;-70.552;2023-12-29T12:13:09;92342.19;;;15.89;100.00
17521;BME280;8878;-33.370;-70.552;2023-12-29T12:15:39;92345.66;;;15.89;100.00
17521;BME280;8878;-33.370;-70.552;2023-12-29T12:18:11;92340.13;;;15.99;100.00
17521;BME280;8878;-33.370;-70.552;2023-12-29T12:20:40;92336.81;;;16.08;100.00
17521;BME280;8878;-33.370;-70.552;2023-12-29T12:23:15;92345.28;;;16.10;100.00
17521;BME280;8878;-33.370;-70.552;2023-12-29T12:25:46;92350.22;;;16.16;100.00
17521;BME280;8878;-33.370;-70.552;2023-12-29T12:28:17;92341.66;;;16.33;100.00
17521;BME280;8878;-33.370;-70.552;2023-12-29T12:30:47;92344.00;;;16.34;100.00
17521;BME280;8878;-33.370;-70.552;2023-12-29T12:33:16;92335.66;;;16.41;100.00
17521;BME280;8878;-33.370;-70.552;2023-12-29T12:35:45;92341.66;;;16.47;100.00
17521;BME280;8878;-33.370;-70.552;2023-12-29T12:38:16;92334.06;;;16.54;100.00
17521;BME280;8878;-33.370;-70.552;2023-12-29T12:40:49;92336.72;;;16.54;100.00
17521;BME280;8878;-33.370;-70.552;2023-12-29T12:43:23;92348.28;;;16.63;100.00
17521;BME280;8878;-33.370;-70.552;2023-12-29T12:46:00;92346.50;;;16.72;100.00
17521;BME280;8878;-33.370;-70.552;2023-12-29T12:48:35;92351.25;;;16.75;100.00
17521;BME280;8878;-33.370;-70.552;2023-12-29T12:51:05;92349.28;;;16.67;100.00